createdAt,value
2018-06-20T00:00:45.248Z,18.14
2018-06-20T00:01:45.156Z,18.17
2018-06-20T00:02:45.165Z,18.19
2018-06-20T00:03:45.182Z,18.31
2018-06-20T00:04:45.196Z,18.24
2018-06-20T00:05:45.359Z,18.24
2018-06-20T00:06:45.224Z,18.23
2018-06-20T00:07:45.243Z,18.27
2018-06-20T00:08:45.257Z,18.20
2018-06-20T00:09:45.267Z,18.17
2018-06-20T00:10:45.378Z,18.16
2018-06-20T00:11:45.293Z,18.16
2018-06-20T00:12:45.302Z,18.19
2018-06-20T00:13:45.320Z,18.13
2018-06-20T00:14:45.333Z,18.16
2018-06-20T00:15:45.500Z,18.11
2018-06-20T00:16:45.358Z,18.10
2018-06-20T00:17:45.376Z,18.03
2018-06-20T00:18:45.392Z,18.05
2018-06-20T00:19:45.406Z,18.08
2018-06-20T00:20:45.569Z,18.05
2018-06-20T00:21:45.427Z,18.06
2018-06-20T00:22:45.444Z,18.08
2018-06-20T00:23:45.460Z,17.95
2018-06-20T00:24:45.470Z,17.99
2018-06-20T00:25:45.584Z,18.05
2018-06-20T00:26:45.500Z,18.05
2018-06-20T00:27:45.514Z,18.01
2018-06-20T00:28:45.530Z,18.11
2018-06-20T00:29:45.538Z,17.99
2018-06-20T00:30:45.652Z,18.08
2018-06-20T00:31:45.564Z,18.03
2018-06-20T00:32:45.582Z,18.03
2018-06-20T00:33:45.590Z,18.02
2018-06-20T00:34:45.609Z,18.01
2018-06-20T00:35:45.617Z,18.03
2018-06-20T00:36:45.783Z,17.96
2018-06-20T00:37:45.640Z,17.96
2018-06-20T00:38:45.662Z,17.92
2018-06-20T00:39:45.670Z,17.87
2018-06-20T00:40:45.680Z,17.92
2018-06-20T00:41:45.801Z,17.87
2018-06-20T00:42:45.711Z,17.92
2018-06-20T00:43:45.738Z,17.86
2018-06-20T00:44:45.739Z,17.86
2018-06-20T00:45:45.754Z,17.84
2018-06-20T00:46:45.872Z,17.83
2018-06-20T00:47:45.782Z,17.88
2018-06-20T00:48:45.795Z,17.79
2018-06-20T00:49:45.811Z,17.90
2018-06-20T00:50:45.819Z,17.90
2018-06-20T00:51:45.929Z,17.88
2018-06-20T00:52:45.856Z,17.83
2018-06-20T00:53:45.853Z,17.87
2018-06-20T00:54:45.872Z,17.86
2018-06-20T00:55:45.929Z,17.80
2018-06-20T00:56:46.006Z,17.90
2018-06-20T00:57:45.911Z,17.88
2018-06-20T00:58:45.928Z,17.86
2018-06-20T00:59:45.939Z,17.88
2018-06-20T01:00:45.954Z,17.80
2018-06-20T01:01:46.121Z,17.90
2018-06-20T01:02:45.982Z,17.86
2018-06-20T01:03:45.990Z,17.87
2018-06-20T01:04:46.001Z,17.90
2018-06-20T01:05:46.012Z,17.87
2018-06-20T01:06:46.132Z,17.86
2018-06-20T01:07:46.046Z,17.90
2018-06-20T01:08:46.061Z,17.81
2018-06-20T01:09:46.068Z,17.87
2018-06-20T01:10:46.092Z,17.81
2018-06-20T01:11:46.334Z,17.88
2018-06-20T01:12:46.111Z,17.90
2018-06-20T01:13:46.122Z,17.94
2018-06-20T01:14:46.140Z,17.90
2018-06-20T01:15:46.145Z,17.92
2018-06-20T01:16:46.313Z,17.76
2018-06-20T01:17:46.179Z,17.88
2018-06-20T01:18:46.187Z,17.92
2018-06-20T01:19:46.200Z,17.83
2018-06-20T01:20:46.217Z,17.95
2018-06-20T01:21:46.334Z,17.92
2018-06-20T01:22:46.241Z,17.88
2018-06-20T01:23:46.259Z,17.87
2018-06-20T01:24:46.267Z,17.90
2018-06-20T01:25:46.283Z,17.86
2018-06-20T01:26:46.400Z,17.92
2018-06-20T01:27:46.305Z,17.79
2018-06-20T01:28:46.321Z,17.84
2018-06-20T01:29:46.337Z,17.81
2018-06-20T01:30:46.352Z,17.87
2018-06-20T01:31:46.461Z,17.81
2018-06-20T01:32:46.370Z,17.86
2018-06-20T01:33:46.388Z,17.86
2018-06-20T01:34:46.403Z,17.80
2018-06-20T01:35:46.418Z,17.92
2018-06-20T01:36:46.582Z,17.81
2018-06-20T01:37:46.441Z,17.86
2018-06-20T01:38:46.455Z,17.87
2018-06-20T01:39:46.470Z,17.92
2018-06-20T01:40:46.478Z,17.86
2018-06-20T01:41:46.602Z,17.87
2018-06-20T01:42:46.505Z,17.87
2018-06-20T01:43:46.527Z,17.88
2018-06-20T01:44:46.541Z,17.83
2018-06-20T01:45:46.595Z,17.84
2018-06-20T01:46:46.663Z,17.80
2018-06-20T01:47:46.573Z,17.86
2018-06-20T01:48:46.590Z,17.88
2018-06-20T01:49:46.604Z,17.83
2018-06-20T01:50:46.619Z,17.92
2018-06-20T01:51:46.779Z,17.90
2018-06-20T01:52:46.642Z,17.92
2018-06-20T01:53:46.662Z,17.90
2018-06-20T01:54:46.673Z,17.83
2018-06-20T01:55:46.739Z,17.87
2018-06-20T01:56:46.851Z,17.87
2018-06-20T01:57:46.711Z,17.90
2018-06-20T01:58:46.719Z,17.88
2018-06-20T01:59:46.734Z,17.79
2018-06-20T02:00:46.757Z,17.88
2018-06-20T02:01:46.864Z,17.87
2018-06-20T02:02:46.774Z,17.87
2018-06-20T02:03:46.788Z,17.87
2018-06-20T02:04:46.802Z,17.84
2018-06-20T02:05:46.817Z,17.81
2018-06-20T02:06:46.926Z,17.87
2018-06-20T02:07:46.841Z,17.83
2018-06-20T02:08:46.862Z,17.68
2018-06-20T02:09:46.873Z,17.79
2018-06-20T02:10:46.889Z,17.69
2018-06-20T02:11:47.049Z,17.63
2018-06-20T02:12:46.909Z,17.69
2018-06-20T02:13:46.922Z,17.65
2018-06-20T02:14:46.931Z,17.63
2018-06-20T02:15:46.946Z,17.74
2018-06-20T02:16:47.062Z,17.66
2018-06-20T02:17:46.974Z,17.73
2018-06-20T02:18:46.991Z,17.66
2018-06-20T02:19:47.002Z,17.68
2018-06-20T02:20:47.008Z,17.66
2018-06-20T02:21:47.176Z,17.63
2018-06-20T02:22:47.040Z,17.63
2018-06-20T02:23:47.050Z,17.60
2018-06-20T02:24:47.070Z,17.62
2018-06-20T02:25:47.080Z,17.60
2018-06-20T02:26:47.243Z,17.54
2018-06-20T02:27:47.106Z,17.57
2018-06-20T02:28:47.119Z,17.49
2018-06-20T02:29:47.131Z,17.54
2018-06-20T02:30:47.147Z,17.47
2018-06-20T02:31:47.309Z,17.50
2018-06-20T02:32:47.175Z,17.42
2018-06-20T02:33:47.183Z,17.42
2018-06-20T02:34:47.204Z,17.45
2018-06-20T02:35:47.210Z,17.49
2018-06-20T02:36:47.482Z,17.46
2018-06-20T02:37:47.262Z,17.43
2018-06-20T02:38:47.275Z,17.42
2018-06-20T02:39:47.295Z,17.47
2018-06-20T02:40:47.287Z,17.38
2018-06-20T02:41:47.432Z,17.39
2018-06-20T02:42:47.331Z,17.40
2018-06-20T02:43:47.319Z,17.39
2018-06-20T02:44:47.352Z,17.42
2018-06-20T02:45:47.343Z,17.36
2018-06-20T02:46:47.457Z,17.31
2018-06-20T02:47:47.366Z,17.35
2018-06-20T02:48:47.407Z,17.38
2018-06-20T02:49:47.421Z,17.39
2018-06-20T02:50:47.409Z,17.35
2018-06-20T02:51:47.571Z,17.20
2018-06-20T02:52:47.511Z,17.27
2018-06-20T02:53:47.444Z,17.25
2018-06-20T02:54:47.455Z,17.21
2018-06-20T02:55:47.495Z,17.24
2018-06-20T02:56:47.590Z,17.18
2018-06-20T02:57:47.520Z,17.15
2018-06-20T02:58:47.535Z,17.13
2018-06-20T02:59:47.524Z,17.05
2018-06-20T03:00:47.558Z,17.06
2018-06-20T03:01:47.643Z,17.07
2018-06-20T03:02:47.565Z,17.05
2018-06-20T03:03:47.573Z,17.09
2018-06-20T03:04:47.585Z,17.05
2018-06-20T03:05:47.593Z,17.02
2018-06-20T03:06:47.713Z,17.03
2018-06-20T03:07:47.627Z,16.94
2018-06-20T03:08:47.665Z,17.09
2018-06-20T03:09:47.650Z,17.03
2018-06-20T03:10:47.694Z,16.97
2018-06-20T03:11:47.768Z,16.94
2018-06-20T03:12:47.699Z,16.91
2018-06-20T03:13:47.695Z,16.94
2018-06-20T03:14:47.736Z,16.94
2018-06-20T03:15:47.733Z,16.99
2018-06-20T03:16:47.838Z,16.92
2018-06-20T03:17:47.782Z,16.90
2018-06-20T03:18:47.792Z,16.92
2018-06-20T03:19:47.778Z,16.88
2018-06-20T03:20:47.816Z,16.84
2018-06-20T03:21:47.924Z,16.88
2018-06-20T03:22:47.828Z,16.90
2018-06-20T03:23:47.823Z,16.88
2018-06-20T03:24:47.854Z,16.91
2018-06-20T03:25:47.850Z,16.87
2018-06-20T03:26:47.968Z,16.81
2018-06-20T03:27:47.876Z,16.80
2018-06-20T03:28:47.893Z,16.80
2018-06-20T03:29:47.902Z,16.87
2018-06-20T03:30:47.948Z,16.81
2018-06-20T03:31:48.030Z,16.82
2018-06-20T03:32:47.943Z,16.76
2018-06-20T03:33:47.980Z,16.81
2018-06-20T03:34:47.968Z,16.69
2018-06-20T03:35:47.977Z,16.74
2018-06-20T03:36:48.140Z,16.81
2018-06-20T03:37:48.027Z,16.70
2018-06-20T03:38:48.047Z,16.70
2018-06-20T03:39:48.039Z,16.70
2018-06-20T03:40:48.040Z,16.81
2018-06-20T03:41:48.232Z,16.73
2018-06-20T03:42:48.099Z,16.76
2018-06-20T03:43:48.089Z,16.74
2018-06-20T03:44:48.089Z,16.73
2018-06-20T03:45:48.117Z,16.77
2018-06-20T03:46:48.211Z,16.70
2018-06-20T03:47:48.129Z,16.73
2018-06-20T03:48:48.142Z,16.74
2018-06-20T03:49:48.177Z,16.74
2018-06-20T03:50:48.171Z,16.73
2018-06-20T03:51:48.279Z,16.70
2018-06-20T03:52:48.215Z,16.73
2018-06-20T03:53:48.230Z,16.73
2018-06-20T03:54:48.245Z,16.74
2018-06-20T03:55:48.243Z,16.70
2018-06-20T03:56:48.366Z,16.73
2018-06-20T03:57:48.280Z,16.74
2018-06-20T03:58:48.267Z,16.69
2018-06-20T03:59:48.345Z,16.82
2018-06-20T04:00:48.301Z,16.67
2018-06-20T04:01:48.470Z,16.67
2018-06-20T04:02:48.348Z,16.72
2018-06-20T04:03:48.331Z,16.69
2018-06-20T04:04:48.356Z,16.65
2018-06-20T04:05:48.350Z,16.66
2018-06-20T04:06:48.493Z,16.73
2018-06-20T04:07:48.403Z,16.74
2018-06-20T04:08:48.407Z,16.74
2018-06-20T04:09:48.435Z,16.69
2018-06-20T04:10:48.427Z,16.72
2018-06-20T04:11:48.527Z,16.80
2018-06-20T04:12:48.509Z,16.77
2018-06-20T04:13:48.486Z,16.76
2018-06-20T04:14:48.481Z,16.77
2018-06-20T04:15:48.479Z,16.70
2018-06-20T04:16:48.620Z,16.73
2018-06-20T04:17:48.499Z,16.67
2018-06-20T04:18:48.548Z,16.70
2018-06-20T04:19:48.527Z,16.73
2018-06-20T04:20:48.574Z,16.72
2018-06-20T04:21:48.578Z,16.67
2018-06-20T04:22:48.682Z,16.65
2018-06-20T04:23:48.585Z,16.59
2018-06-20T04:24:48.586Z,16.69
2018-06-20T04:25:48.606Z,16.69
2018-06-20T04:26:48.619Z,16.72
2018-06-20T04:27:48.755Z,16.69
2018-06-20T04:28:48.666Z,16.69
2018-06-20T04:29:48.679Z,16.62
2018-06-20T04:30:48.672Z,16.67
2018-06-20T04:31:48.705Z,16.66
2018-06-20T04:32:48.787Z,16.65
2018-06-20T04:33:48.728Z,16.67
2018-06-20T04:34:48.824Z,16.66
2018-06-20T04:35:48.736Z,16.69
2018-06-20T04:36:48.755Z,16.63
2018-06-20T04:37:48.879Z,16.70
2018-06-20T04:38:48.777Z,16.62
2018-06-20T04:39:48.785Z,16.55
2018-06-20T04:40:48.818Z,16.54
2018-06-20T04:41:48.830Z,16.62
2018-06-20T04:42:48.958Z,16.49
2018-06-20T04:43:48.821Z,16.54
2018-06-20T04:44:48.842Z,16.58
2018-06-20T04:45:48.851Z,16.54
2018-06-20T04:46:48.893Z,16.55
2018-06-20T04:47:48.978Z,16.51
2018-06-20T04:48:48.918Z,16.62
2018-06-20T04:49:48.907Z,16.55
2018-06-20T04:50:48.938Z,16.55
2018-06-20T04:51:48.929Z,16.55
2018-06-20T04:52:49.049Z,16.55
2018-06-20T04:53:48.948Z,16.55
2018-06-20T04:54:48.964Z,16.55
2018-06-20T04:55:48.974Z,16.52
2018-06-20T04:56:49.019Z,16.58
2018-06-20T04:57:49.097Z,16.52
2018-06-20T04:58:49.027Z,16.57
2018-06-20T04:59:49.048Z,16.55
2018-06-20T05:00:49.041Z,16.59
2018-06-20T05:01:49.050Z,16.52
2018-06-20T05:02:49.165Z,16.57
2018-06-20T05:03:49.075Z,16.59
2018-06-20T05:04:49.101Z,16.57
2018-06-20T05:05:49.099Z,16.57
2018-06-20T05:06:49.108Z,16.55
2018-06-20T05:07:49.276Z,16.54
2018-06-20T05:08:49.149Z,16.54
2018-06-20T05:09:49.161Z,16.57
2018-06-20T05:10:49.176Z,16.55
2018-06-20T05:11:49.188Z,16.58
2018-06-20T05:12:49.335Z,16.55
2018-06-20T05:13:49.193Z,16.65
2018-06-20T05:14:49.236Z,16.65
2018-06-20T05:15:49.226Z,16.65
2018-06-20T05:16:49.264Z,16.66
2018-06-20T05:17:49.351Z,16.67
2018-06-20T05:18:49.259Z,16.62
2018-06-20T05:19:49.272Z,16.62
2018-06-20T05:20:49.313Z,16.74
2018-06-20T05:21:49.301Z,16.65
2018-06-20T05:22:49.437Z,16.70
2018-06-20T05:23:49.320Z,16.70
2018-06-20T05:24:49.345Z,16.66
2018-06-20T05:25:49.374Z,16.67
2018-06-20T05:26:49.361Z,16.81
2018-06-20T05:27:49.474Z,16.82
2018-06-20T05:28:49.379Z,16.74
2018-06-20T05:29:49.420Z,16.87
2018-06-20T05:30:49.404Z,16.88
2018-06-20T05:31:49.420Z,16.87
2018-06-20T05:32:49.543Z,16.91
2018-06-20T05:33:49.458Z,17.03
2018-06-20T05:34:49.464Z,16.94
2018-06-20T05:35:49.474Z,16.94
2018-06-20T05:36:49.485Z,17.00
2018-06-20T05:37:49.495Z,16.92
2018-06-20T05:38:49.615Z,17.00
2018-06-20T05:39:49.553Z,17.02
2018-06-20T05:40:49.563Z,16.94
2018-06-20T05:41:49.572Z,17.00
2018-06-20T05:42:49.589Z,16.99
2018-06-20T05:43:49.700Z,17.02
2018-06-20T05:44:49.588Z,17.09
2018-06-20T05:45:49.631Z,17.05
2018-06-20T05:46:49.639Z,17.03
2018-06-20T05:47:49.620Z,16.91
2018-06-20T05:48:49.735Z,16.91
2018-06-20T05:49:49.660Z,16.94
2018-06-20T05:50:49.693Z,17.02
2018-06-20T05:51:49.672Z,16.94
2018-06-20T05:52:49.711Z,16.92
2018-06-20T05:53:49.894Z,16.91
2018-06-20T05:54:49.710Z,17.00
2018-06-20T05:55:49.727Z,16.97
2018-06-20T05:56:49.755Z,16.99
2018-06-20T05:57:49.755Z,16.97
2018-06-20T05:58:49.910Z,16.91
2018-06-20T05:59:49.772Z,16.87
2018-06-20T06:00:49.794Z,16.95
2018-06-20T06:01:49.793Z,16.94
2018-06-20T06:02:49.811Z,16.88
2018-06-20T06:03:49.928Z,16.84
2018-06-20T06:04:49.836Z,16.88
2018-06-20T06:05:49.847Z,16.80
2018-06-20T06:06:49.865Z,16.76
2018-06-20T06:07:49.900Z,16.73
2018-06-20T06:08:50.067Z,16.70
2018-06-20T06:09:49.898Z,16.70
2018-06-20T06:10:49.924Z,16.73
2018-06-20T06:11:49.921Z,16.66
2018-06-20T06:12:49.969Z,16.76
2018-06-20T06:13:50.048Z,16.69
2018-06-20T06:14:49.961Z,16.63
2018-06-20T06:15:49.975Z,16.72
2018-06-20T06:16:50.009Z,16.70
2018-06-20T06:17:50.027Z,16.70
2018-06-20T06:18:50.118Z,16.70
2018-06-20T06:19:50.054Z,16.59
2018-06-20T06:20:50.066Z,16.70
2018-06-20T06:21:50.050Z,16.59
2018-06-20T06:22:50.065Z,16.57
2018-06-20T06:23:50.199Z,16.67
2018-06-20T06:24:50.089Z,16.65
2018-06-20T06:25:50.125Z,16.66
2018-06-20T06:26:50.141Z,16.63
2018-06-20T06:27:50.136Z,16.69
2018-06-20T06:28:50.300Z,16.63
2018-06-20T06:29:50.149Z,16.66
2018-06-20T06:30:50.177Z,16.55
2018-06-20T06:31:50.171Z,16.55
2018-06-20T06:32:50.188Z,16.54
2018-06-20T06:33:50.294Z,16.57
2018-06-20T06:34:50.211Z,16.55
2018-06-20T06:35:50.230Z,16.63
2018-06-20T06:36:50.235Z,16.59
2018-06-20T06:37:50.247Z,16.49
2018-06-20T06:38:50.390Z,16.57
2018-06-20T06:39:50.299Z,16.55
2018-06-20T06:40:50.284Z,16.63
2018-06-20T06:41:50.310Z,16.58
2018-06-20T06:42:50.306Z,16.62
2018-06-20T06:43:50.454Z,16.55
2018-06-20T06:44:50.344Z,16.57
2018-06-20T06:45:50.346Z,16.63
2018-06-20T06:46:50.360Z,16.57
2018-06-20T06:47:50.401Z,16.55
2018-06-20T06:48:50.483Z,16.49
2018-06-20T06:49:50.432Z,16.59
2018-06-20T06:50:50.440Z,16.59
2018-06-20T06:51:50.421Z,16.58
2018-06-20T06:52:50.461Z,16.49
2018-06-20T06:53:50.589Z,16.55
2018-06-20T06:54:50.456Z,16.54
2018-06-20T06:55:50.477Z,16.51
2018-06-20T06:56:50.501Z,16.54
2018-06-20T06:57:50.518Z,16.48
2018-06-20T06:58:50.542Z,16.49
2018-06-20T06:59:50.619Z,16.45
2018-06-20T07:00:50.531Z,16.51
2018-06-20T07:01:50.541Z,16.52
2018-06-20T07:02:50.557Z,16.52
2018-06-20T07:03:50.567Z,16.49
2018-06-20T07:04:50.681Z,16.40
2018-06-20T07:05:50.599Z,16.45
2018-06-20T07:06:50.637Z,16.42
2018-06-20T07:07:50.616Z,16.44
2018-06-20T07:08:50.660Z,16.45
2018-06-20T07:09:50.739Z,16.42
2018-06-20T07:10:50.679Z,16.39
2018-06-20T07:11:50.673Z,16.39
2018-06-20T07:12:50.702Z,16.36
2018-06-20T07:13:50.711Z,16.37
2018-06-20T07:14:50.802Z,16.39
2018-06-20T07:15:50.716Z,16.34
2018-06-20T07:16:50.753Z,16.44
2018-06-20T07:17:50.737Z,16.33
2018-06-20T07:18:50.749Z,16.33
2018-06-20T07:19:50.864Z,16.36
2018-06-20T07:20:50.775Z,16.36
2018-06-20T07:21:50.789Z,16.29
2018-06-20T07:22:50.794Z,16.26
2018-06-20T07:23:50.838Z,16.33
2018-06-20T07:24:50.958Z,16.33
2018-06-20T07:25:50.832Z,16.33
2018-06-20T07:26:50.878Z,16.26
2018-06-20T07:27:50.864Z,16.33
2018-06-20T07:28:50.873Z,16.30
2018-06-20T07:29:50.990Z,16.26
2018-06-20T07:30:50.899Z,16.39
2018-06-20T07:31:50.937Z,16.25
2018-06-20T07:32:50.922Z,16.29
2018-06-20T07:33:50.939Z,16.21
2018-06-20T07:34:51.060Z,16.21
2018-06-20T07:35:51.053Z,16.16
2018-06-20T07:36:50.998Z,16.27
2018-06-20T07:37:50.983Z,16.25
2018-06-20T07:38:50.994Z,16.22
2018-06-20T07:39:51.134Z,16.29
2018-06-20T07:40:51.017Z,16.21
2018-06-20T07:41:51.044Z,16.17
2018-06-20T07:42:51.041Z,16.18
2018-06-20T07:43:51.064Z,16.22
2018-06-20T07:44:51.192Z,16.18
2018-06-20T07:45:51.109Z,16.25
2018-06-20T07:46:51.094Z,16.17
2018-06-20T07:47:51.108Z,16.18
2018-06-20T07:48:51.120Z,16.22
2018-06-20T07:49:51.255Z,16.21
2018-06-20T07:50:51.233Z,16.18
2018-06-20T07:51:51.155Z,16.21
2018-06-20T07:52:51.176Z,16.17
2018-06-20T07:53:51.203Z,16.25
2018-06-20T07:54:51.337Z,16.14
2018-06-20T07:55:51.232Z,16.21
2018-06-20T07:56:51.247Z,16.25
2018-06-20T07:57:51.222Z,16.26
2018-06-20T07:58:51.237Z,16.21
2018-06-20T07:59:51.394Z,16.21
2018-06-20T08:00:51.377Z,16.21
2018-06-20T08:01:51.271Z,16.21
2018-06-20T08:02:51.315Z,16.17
2018-06-20T08:03:51.324Z,16.25
2018-06-20T08:04:51.460Z,16.27
2018-06-20T08:05:51.326Z,16.14
2018-06-20T08:06:51.341Z,16.22
2018-06-20T08:07:51.351Z,16.29
2018-06-20T08:08:51.359Z,16.32
2018-06-20T08:09:51.523Z,16.25
2018-06-20T08:10:51.378Z,16.32
2018-06-20T08:11:51.420Z,16.34
2018-06-20T08:12:51.422Z,16.39
2018-06-20T08:13:51.431Z,16.36
2018-06-20T08:14:51.433Z,16.33
2018-06-20T08:15:51.547Z,16.33
2018-06-20T08:16:51.482Z,16.37
2018-06-20T08:17:51.473Z,16.37
2018-06-20T08:18:51.491Z,16.39
2018-06-20T08:19:51.496Z,16.39
2018-06-20T08:20:51.659Z,16.36
2018-06-20T08:21:51.544Z,16.44
2018-06-20T08:22:51.530Z,16.39
2018-06-20T08:23:51.546Z,16.37
2018-06-20T08:24:51.562Z,16.37
2018-06-20T08:25:51.773Z,16.36
2018-06-20T08:26:51.593Z,16.33
2018-06-20T08:27:51.620Z,16.37
2018-06-20T08:28:51.613Z,16.37
2018-06-20T08:29:51.620Z,16.42
2018-06-20T08:30:51.804Z,16.34
2018-06-20T08:31:51.646Z,16.37
2018-06-20T08:32:51.684Z,16.37
2018-06-20T08:33:51.665Z,16.39
2018-06-20T08:34:51.683Z,16.39
2018-06-20T08:35:51.816Z,16.40
2018-06-20T08:36:51.707Z,16.37
2018-06-20T08:37:51.743Z,16.36
2018-06-20T08:38:51.730Z,16.45
2018-06-20T08:39:51.743Z,16.37
2018-06-20T08:40:51.928Z,16.42
2018-06-20T08:41:51.793Z,16.48
2018-06-20T08:42:51.776Z,16.40
2018-06-20T08:43:51.788Z,16.44
2018-06-20T08:44:51.835Z,16.47
2018-06-20T08:45:51.920Z,16.39
2018-06-20T08:46:51.827Z,16.39
2018-06-20T08:47:51.850Z,16.40
2018-06-20T08:48:51.876Z,16.39
2018-06-20T08:49:51.863Z,16.37
2018-06-20T08:50:52.000Z,16.37
2018-06-20T08:51:51.913Z,16.39
2018-06-20T08:52:51.898Z,16.44
2018-06-20T08:53:51.938Z,16.36
2018-06-20T08:54:51.936Z,16.32
2018-06-20T08:55:52.115Z,16.32
2018-06-20T08:56:51.970Z,16.37
2018-06-20T08:57:51.965Z,16.36
2018-06-20T08:58:52.001Z,16.42
2018-06-20T08:59:51.987Z,16.34
2018-06-20T09:00:52.125Z,16.30
2018-06-20T09:01:52.011Z,16.32
2018-06-20T09:02:52.040Z,16.33
2018-06-20T09:03:52.048Z,16.30
2018-06-20T09:04:52.076Z,16.32
2018-06-20T09:05:52.206Z,16.32
2018-06-20T09:06:52.071Z,16.30
2018-06-20T09:07:52.116Z,16.30
2018-06-20T09:08:52.127Z,16.33
2018-06-20T09:09:52.136Z,16.26
2018-06-20T09:10:52.286Z,16.27
2018-06-20T09:11:52.145Z,16.27
2018-06-20T09:12:52.147Z,16.22
2018-06-20T09:13:52.156Z,16.18
2018-06-20T09:14:52.202Z,16.14
2018-06-20T09:15:52.287Z,16.22
2018-06-20T09:16:52.227Z,16.21
2018-06-20T09:17:52.209Z,16.21
2018-06-20T09:18:52.225Z,16.16
2018-06-20T09:19:52.257Z,16.13
2018-06-20T09:20:52.396Z,16.21
2018-06-20T09:21:52.295Z,16.14
2018-06-20T09:22:52.277Z,16.16
2018-06-20T09:23:52.282Z,16.13
2018-06-20T09:24:52.287Z,16.13
2018-06-20T09:25:52.405Z,16.02
2018-06-20T09:26:52.343Z,16.16
2018-06-20T09:27:52.325Z,15.99
2018-06-20T09:28:52.367Z,16.11
2018-06-20T09:29:52.351Z,16.13
2018-06-20T09:30:52.492Z,16.08
2018-06-20T09:31:52.403Z,16.06
2018-06-20T09:32:52.414Z,16.16
2018-06-20T09:33:52.426Z,16.18
2018-06-20T09:34:52.414Z,16.16
2018-06-20T09:35:52.552Z,16.16
2018-06-20T09:36:52.436Z,16.11
2018-06-20T09:37:52.479Z,16.11
2018-06-20T09:38:52.486Z,16.13
2018-06-20T09:39:52.475Z,16.21
2018-06-20T09:40:52.613Z,16.21
2018-06-20T09:41:52.499Z,16.26
2018-06-20T09:42:52.508Z,16.22
2018-06-20T09:43:52.548Z,16.25
2018-06-20T09:44:52.537Z,16.21
2018-06-20T09:45:52.723Z,16.21
2018-06-20T09:46:52.560Z,16.36
2018-06-20T09:47:52.579Z,16.26
2018-06-20T09:48:52.601Z,16.26
2018-06-20T09:49:52.610Z,16.30
2018-06-20T09:50:52.760Z,16.33
2018-06-20T09:51:52.624Z,16.17
2018-06-20T09:52:52.631Z,16.22
2018-06-20T09:53:52.675Z,16.21
2018-06-20T09:54:52.687Z,16.16
2018-06-20T09:55:52.850Z,16.17
2018-06-20T09:56:52.680Z,16.25
2018-06-20T09:57:52.777Z,16.11
2018-06-20T09:58:52.734Z,16.25
2018-06-20T09:59:52.719Z,16.13
2018-06-20T10:00:52.857Z,16.22
2018-06-20T10:01:52.741Z,16.16
2018-06-20T10:02:52.755Z,16.21
2018-06-20T10:03:52.767Z,16.13
2018-06-20T10:04:52.793Z,16.22
2018-06-20T10:05:52.972Z,16.13
2018-06-20T10:06:52.841Z,16.14
2018-06-20T10:07:52.811Z,16.10
2018-06-20T10:08:52.837Z,16.25
2018-06-20T10:09:52.837Z,16.17
2018-06-20T10:10:53.011Z,16.07
2018-06-20T10:11:52.895Z,16.16
2018-06-20T10:12:52.905Z,16.16
2018-06-20T10:13:52.890Z,16.13
2018-06-20T10:14:52.927Z,16.18
2018-06-20T10:15:53.013Z,16.25
2018-06-20T10:16:52.918Z,16.26
2018-06-20T10:17:52.938Z,16.22
2018-06-20T10:18:52.952Z,16.29
2018-06-20T10:19:52.976Z,16.27
2018-06-20T10:20:53.151Z,16.30
2018-06-20T10:21:52.995Z,16.37
2018-06-20T10:22:52.997Z,16.32
2018-06-20T10:23:53.023Z,16.40
2018-06-20T10:24:53.029Z,16.42
2018-06-20T10:25:53.192Z,16.44
2018-06-20T10:26:53.046Z,16.47
2018-06-20T10:27:53.062Z,16.45
2018-06-20T10:28:53.083Z,16.47
2018-06-20T10:29:53.092Z,16.42
2018-06-20T10:30:53.229Z,16.58
2018-06-20T10:31:53.114Z,16.45
2018-06-20T10:32:53.124Z,16.52
2018-06-20T10:33:53.138Z,16.54
2018-06-20T10:34:53.154Z,16.52
2018-06-20T10:35:53.331Z,16.55
2018-06-20T10:36:53.194Z,16.59
2018-06-20T10:37:53.187Z,16.63
2018-06-20T10:38:53.196Z,16.66
2018-06-20T10:39:53.253Z,16.69
2018-06-20T10:40:53.378Z,16.70
2018-06-20T10:41:53.244Z,16.62
2018-06-20T10:42:53.259Z,16.73
2018-06-20T10:43:53.293Z,16.74
2018-06-20T10:44:53.299Z,16.74
2018-06-20T10:45:53.472Z,16.70
2018-06-20T10:46:53.323Z,16.67
2018-06-20T10:47:53.321Z,16.81
2018-06-20T10:48:53.355Z,16.90
2018-06-20T10:49:53.337Z,16.80
2018-06-20T10:50:53.481Z,16.80
2018-06-20T10:51:53.473Z,16.90
2018-06-20T10:52:53.394Z,16.85
2018-06-20T10:53:53.421Z,16.81
2018-06-20T10:54:53.404Z,16.87
2018-06-20T10:55:53.414Z,16.90
2018-06-20T10:56:53.610Z,16.85
2018-06-20T10:57:53.439Z,16.87
2018-06-20T10:58:53.462Z,16.92
2018-06-20T10:59:53.467Z,16.91
2018-06-20T11:00:53.480Z,16.91
2018-06-20T11:01:53.620Z,17.05
2018-06-20T11:02:53.510Z,17.07
2018-06-20T11:03:53.537Z,17.07
2018-06-20T11:04:53.531Z,17.18
2018-06-20T11:05:53.576Z,17.22
2018-06-20T11:06:53.722Z,17.21
2018-06-20T11:07:53.578Z,17.27
2018-06-20T11:08:53.602Z,17.24
2018-06-20T11:09:53.601Z,17.25
2018-06-20T11:10:53.645Z,17.25
2018-06-20T11:11:53.776Z,17.25
2018-06-20T11:12:53.653Z,17.18
2018-06-20T11:13:53.693Z,17.27
2018-06-20T11:14:53.693Z,17.28
2018-06-20T11:15:53.679Z,17.32
2018-06-20T11:16:53.859Z,17.32
2018-06-20T11:17:53.734Z,17.31
2018-06-20T11:18:53.747Z,17.40
2018-06-20T11:19:53.767Z,17.46
2018-06-20T11:20:53.750Z,17.54
2018-06-20T11:21:53.919Z,17.65
2018-06-20T11:22:53.788Z,17.84
2018-06-20T11:23:53.792Z,17.86
2018-06-20T11:24:53.805Z,17.98
2018-06-20T11:25:53.842Z,18.11
2018-06-20T11:26:53.959Z,18.31
2018-06-20T11:27:53.859Z,18.38
2018-06-20T11:28:54.494Z,18.50
2018-06-20T11:29:53.887Z,18.50
2018-06-20T11:30:53.907Z,18.60
2018-06-20T11:31:54.008Z,18.69
2018-06-20T11:32:53.929Z,18.79
2018-06-20T11:33:53.938Z,18.97
2018-06-20T11:34:53.984Z,19.13
2018-06-20T11:35:53.999Z,19.20
2018-06-20T11:36:54.140Z,19.30
2018-06-20T11:37:53.996Z,19.31
2018-06-20T11:38:54.015Z,19.34
2018-06-20T11:39:54.044Z,19.35
2018-06-20T11:40:54.049Z,19.35
2018-06-20T11:41:54.209Z,19.49
2018-06-20T11:42:54.078Z,19.50
2018-06-20T11:43:54.099Z,19.63
2018-06-20T11:44:54.136Z,19.70
2018-06-20T11:45:54.124Z,19.71
2018-06-20T11:46:54.269Z,19.74
2018-06-20T11:47:54.182Z,19.78
2018-06-20T11:48:54.169Z,19.86
2018-06-20T11:49:54.240Z,19.92
2018-06-20T11:50:54.202Z,20.00
2018-06-20T11:51:54.370Z,20.11
2018-06-20T11:52:54.264Z,20.00
2018-06-20T11:53:54.257Z,19.97
2018-06-20T11:54:54.295Z,20.11
2018-06-20T11:55:54.293Z,20.18
2018-06-20T11:56:54.413Z,20.27
2018-06-20T11:57:54.334Z,20.37
2018-06-20T11:58:54.343Z,20.35
2018-06-20T11:59:54.386Z,20.46
2018-06-20T12:00:54.384Z,20.42
2018-06-20T12:01:54.559Z,20.53
2018-06-20T12:02:54.412Z,20.57
2018-06-20T12:03:54.472Z,20.64
2018-06-20T12:04:54.454Z,20.71
2018-06-20T12:05:54.455Z,20.75
2018-06-20T12:06:54.605Z,20.78
2018-06-20T12:07:54.496Z,20.91
2018-06-20T12:08:54.544Z,20.85
2018-06-20T12:09:54.564Z,21.06
2018-06-20T12:10:54.577Z,21.16
2018-06-20T12:11:54.746Z,21.27
2018-06-20T12:12:54.589Z,21.40
2018-06-20T12:13:54.633Z,21.37
2018-06-20T12:14:54.625Z,21.41
2018-06-20T12:15:54.645Z,21.38
2018-06-20T12:16:54.787Z,21.41
2018-06-20T12:17:54.676Z,21.55
2018-06-20T12:18:54.721Z,21.62
2018-06-20T12:19:54.745Z,21.67
2018-06-20T12:20:54.762Z,21.66
2018-06-20T12:21:54.883Z,21.62
2018-06-20T12:22:54.795Z,21.68
2018-06-20T12:23:54.820Z,21.68
2018-06-20T12:24:54.834Z,21.58
2018-06-20T12:25:54.826Z,21.56
2018-06-20T12:26:54.952Z,21.55
2018-06-20T12:27:54.891Z,21.53
2018-06-20T12:28:54.892Z,21.59
2018-06-20T12:29:54.931Z,21.74
2018-06-20T12:30:54.928Z,21.80
2018-06-20T12:31:55.042Z,21.85
2018-06-20T12:32:54.991Z,21.86
2018-06-20T12:33:54.988Z,21.85
2018-06-20T12:34:55.012Z,21.89
2018-06-20T12:35:55.045Z,22.02
2018-06-20T12:36:55.192Z,22.30
2018-06-20T12:37:55.056Z,22.41
2018-06-20T12:38:55.091Z,22.48
2018-06-20T12:39:55.132Z,22.52
2018-06-20T12:40:55.152Z,22.63
2018-06-20T12:41:55.249Z,22.69
2018-06-20T12:42:55.171Z,22.85
2018-06-20T12:43:55.210Z,23.03
2018-06-20T12:44:55.228Z,23.03
2018-06-20T12:45:55.236Z,23.22
2018-06-20T12:46:55.411Z,23.22
2018-06-20T12:47:55.262Z,23.25
2018-06-20T12:48:55.281Z,23.29
2018-06-20T12:49:55.534Z,23.25
2018-06-20T12:50:55.335Z,23.45
2018-06-20T12:51:55.473Z,23.50
2018-06-20T12:52:55.370Z,23.60